sensor_id;sensor_type;location;lat;lon;timestamp;P1;durP1;ratioP1;P2;durP2;ratioP2
52468;SDS011;38381;53.688;10.776;2022-11-15T00:04:36;30.42;;;22.45;;
52468;SDS011;38381;53.688;10.776;2022-11-15T00:09:37;32.33;;;23.35;;
52468;SDS011;38381;53.688;10.776;2022-11-15T00:14:37;31.77;;;23.08;;
52468;SDS011;38381;53.688;10.776;2022-11-15T00:19:37;32.22;;;25.23;;
52468;SDS011;38381;53.688;10.776;2022-11-15T00:24:38;35.95;;;23.77;;
52468;SDS011;38381;53.688;10.776;2022-11-15T00:29:38;30.27;;;22.98;;
52468;SDS011;38381;53.688;10.776;2022-11-15T00:34:43;29.42;;;21.73;;
52468;SDS011;38381;53.688;10.776;2022-11-15T00:39:43;30.52;;;20.80;;
52468;SDS011;38381;53.688;10.776;2022-11-15T00:44:43;31.80;;;23.10;;
52468;SDS011;38381;53.688;10.776;2022-11-15T00:49:44;31.17;;;22.30;;
52468;SDS011;38381;53.688;10.776;2022-11-15T00:54:44;26.05;;;19.50;;
52468;SDS011;38381;53.688;10.776;2022-11-15T00:59:45;30.98;;;22.50;;
52468;SDS011;38381;53.688;10.776;2022-11-15T01:04:45;27.52;;;21.00;;
52468;SDS011;38381;53.688;10.776;2022-11-15T01:09:46;27.08;;;21.58;;
52468;SDS011;38381;53.688;10.776;2022-11-15T01:14:46;29.88;;;21.98;;
52468;SDS011;38381;53.688;10.776;2022-11-15T01:19:46;28.93;;;21.50;;
52468;SDS011;38381;53.688;10.776;2022-11-15T01:24:48;29.00;;;22.50;;
52468;SDS011;38381;53.688;10.776;2022-11-15T01:34:50;26.10;;;20.07;;
52468;SDS011;38381;53.688;10.776;2022-11-15T01:39:50;28.80;;;20.90;;
52468;SDS011;38381;53.688;10.776;2022-11-15T01:44:51;25.55;;;19.23;;
52468;SDS011;38381;53.688;10.776;2022-11-15T01:55:00;28.50;;;21.15;;
52468;SDS011;38381;53.688;10.776;2022-11-15T02:00:02;25.00;;;19.77;;
52468;SDS011;38381;53.688;10.776;2022-11-15T02:05:04;23.98;;;19.52;;
52468;SDS011;38381;53.688;10.776;2022-11-15T02:10:09;28.73;;;20.65;;
52468;SDS011;38381;53.688;10.776;2022-11-15T02:15:13;26.30;;;19.55;;
52468;SDS011;38381;53.688;10.776;2022-11-15T02:31:19;24.58;;;18.17;;
52468;SDS011;38381;53.688;10.776;2022-11-15T02:41:39;21.70;;;17.42;;
52468;SDS011;38381;53.688;10.776;2022-11-15T02:47:03;27.05;;;19.70;;
52468;SDS011;38381;53.688;10.776;2022-11-15T02:52:17;25.02;;;19.40;;
52468;SDS011;38381;53.688;10.776;2022-11-15T02:57:19;24.05;;;19.15;;
52468;SDS011;38381;53.688;10.776;2022-11-15T03:02:36;27.35;;;20.55;;
52468;SDS011;38381;53.688;10.776;2022-11-15T03:07:51;30.77;;;20.73;;
52468;SDS011;38381;53.688;10.776;2022-11-15T03:13:16;21.15;;;18.08;;
52468;SDS011;38381;53.688;10.776;2022-11-15T03:18:28;29.85;;;21.35;;
52468;SDS011;38381;53.688;10.776;2022-11-15T03:23:33;28.80;;;20.92;;
52468;SDS011;38381;53.688;10.776;2022-11-15T03:28:37;26.73;;;19.08;;
52468;SDS011;38381;53.688;10.776;2022-11-15T03:33:46;27.05;;;19.55;;
52468;SDS011;38381;53.688;10.776;2022-11-15T03:38:46;25.23;;;17.63;;
52468;SDS011;38381;53.688;10.776;2022-11-15T03:43:47;26.27;;;20.88;;
52468;SDS011;38381;53.688;10.776;2022-11-15T03:49:22;26.75;;;20.20;;
52468;SDS011;38381;53.688;10.776;2022-11-15T03:54:26;25.20;;;17.83;;
52468;SDS011;38381;53.688;10.776;2022-11-15T03:59:26;22.63;;;17.60;;
52468;SDS011;38381;53.688;10.776;2022-11-15T04:04:26;23.30;;;17.25;;
52468;SDS011;38381;53.688;10.776;2022-11-15T04:09:27;24.80;;;21.15;;
52468;SDS011;38381;53.688;10.776;2022-11-15T04:14:27;19.45;;;17.20;;
52468;SDS011;38381;53.688;10.776;2022-11-15T04:19:27;25.05;;;18.70;;
52468;SDS011;38381;53.688;10.776;2022-11-15T04:24:46;20.15;;;14.90;;
52468;SDS011;38381;53.688;10.776;2022-11-15T04:29:47;19.58;;;17.42;;
52468;SDS011;38381;53.688;10.776;2022-11-15T04:34:47;23.98;;;16.92;;
52468;SDS011;38381;53.688;10.776;2022-11-15T04:39:48;22.00;;;15.70;;
52468;SDS011;38381;53.688;10.776;2022-11-15T04:44:48;23.95;;;16.90;;
52468;SDS011;38381;53.688;10.776;2022-11-15T04:49:48;22.95;;;17.15;;
52468;SDS011;38381;53.688;10.776;2022-11-15T04:54:49;22.20;;;17.33;;
52468;SDS011;38381;53.688;10.776;2022-11-15T04:59:49;18.95;;;16.67;;
52468;SDS011;38381;53.688;10.776;2022-11-15T05:04:50;23.30;;;18.05;;
52468;SDS011;38381;53.688;10.776;2022-11-15T05:09:50;22.52;;;17.75;;
52468;SDS011;38381;53.688;10.776;2022-11-15T05:14:50;23.20;;;16.77;;
52468;SDS011;38381;53.688;10.776;2022-11-15T05:19:51;22.35;;;18.75;;
52468;SDS011;38381;53.688;10.776;2022-11-15T05:24:52;25.27;;;17.50;;
52468;SDS011;38381;53.688;10.776;2022-11-15T05:29:52;23.63;;;16.90;;
52468;SDS011;38381;53.688;10.776;2022-11-15T05:34:52;23.10;;;17.08;;
52468;SDS011;38381;53.688;10.776;2022-11-15T05:39:54;22.17;;;17.30;;
52468;SDS011;38381;53.688;10.776;2022-11-15T05:44:54;23.02;;;16.90;;
52468;SDS011;38381;53.688;10.776;2022-11-15T05:49:57;26.15;;;17.70;;
52468;SDS011;38381;53.688;10.776;2022-11-15T05:54:57;24.17;;;17.90;;
52468;SDS011;38381;53.688;10.776;2022-11-15T05:59:59;23.63;;;18.77;;
52468;SDS011;38381;53.688;10.776;2022-11-15T06:04:59;21.63;;;16.80;;
52468;SDS011;38381;53.688;10.776;2022-11-15T06:10:00;28.08;;;19.33;;
52468;SDS011;38381;53.688;10.776;2022-11-15T06:15:01;26.73;;;20.17;;
52468;SDS011;38381;53.688;10.776;2022-11-15T06:20:01;18.80;;;15.43;;
52468;SDS011;38381;53.688;10.776;2022-11-15T06:25:02;27.10;;;18.80;;
52468;SDS011;38381;53.688;10.776;2022-11-15T06:30:03;19.38;;;16.23;;
52468;SDS011;38381;53.688;10.776;2022-11-15T06:35:04;20.98;;;15.88;;
52468;SDS011;38381;53.688;10.776;2022-11-15T06:40:05;22.17;;;19.38;;
52468;SDS011;38381;53.688;10.776;2022-11-15T06:45:07;19.35;;;16.30;;
52468;SDS011;38381;53.688;10.776;2022-11-15T06:50:07;22.08;;;16.42;;
52468;SDS011;38381;53.688;10.776;2022-11-15T06:55:08;20.35;;;15.98;;
52468;SDS011;38381;53.688;10.776;2022-11-15T07:00:09;21.08;;;16.73;;
52468;SDS011;38381;53.688;10.776;2022-11-15T07:05:10;20.85;;;14.77;;
52468;SDS011;38381;53.688;10.776;2022-11-15T07:10:11;19.90;;;15.13;;
52468;SDS011;38381;53.688;10.776;2022-11-15T07:15:12;19.08;;;15.35;;
52468;SDS011;38381;53.688;10.776;2022-11-15T07:20:12;19.23;;;14.77;;
52468;SDS011;38381;53.688;10.776;2022-11-15T07:25:13;21.75;;;14.18;;
52468;SDS011;38381;53.688;10.776;2022-11-15T07:30:13;20.23;;;15.90;;
52468;SDS011;38381;53.688;10.776;2022-11-15T07:35:14;20.40;;;14.07;;
52468;SDS011;38381;53.688;10.776;2022-11-15T07:40:14;21.90;;;16.35;;
52468;SDS011;38381;53.688;10.776;2022-11-15T07:45:15;19.23;;;14.02;;
52468;SDS011;38381;53.688;10.776;2022-11-15T07:50:16;38.10;;;33.65;;
52468;SDS011;38381;53.688;10.776;2022-11-15T07:55:17;24.00;;;18.93;;
52468;SDS011;38381;53.688;10.776;2022-11-15T08:00:18;20.77;;;15.65;;
52468;SDS011;38381;53.688;10.776;2022-11-15T08:05:19;17.75;;;14.30;;
52468;SDS011;38381;53.688;10.776;2022-11-15T08:10:19;17.97;;;12.97;;
52468;SDS011;38381;53.688;10.776;2022-11-15T08:15:20;18.65;;;13.98;;
52468;SDS011;38381;53.688;10.776;2022-11-15T08:20:21;20.95;;;15.27;;
52468;SDS011;38381;53.688;10.776;2022-11-15T08:25:21;16.90;;;14.93;;
52468;SDS011;38381;53.688;10.776;2022-11-15T08:30:22;17.38;;;13.93;;
52468;SDS011;38381;53.688;10.776;2022-11-15T08:35:23;16.13;;;13.55;;
52468;SDS011;38381;53.688;10.776;2022-11-15T08:40:24;17.15;;;13.85;;
52468;SDS011;38381;53.688;10.776;2022-11-15T08:45:24;20.38;;;14.95;;
52468;SDS011;38381;53.688;10.776;2022-11-15T08:50:25;15.68;;;12.55;;
52468;SDS011;38381;53.688;10.776;2022-11-15T08:55:25;19.92;;;14.80;;
52468;SDS011;38381;53.688;10.776;2022-11-15T09:00:25;23.98;;;18.15;;
52468;SDS011;38381;53.688;10.776;2022-11-15T09:05:26;19.67;;;15.60;;
52468;SDS011;38381;53.688;10.776;2022-11-15T09:10:26;13.83;;;12.30;;
52468;SDS011;38381;53.688;10.776;2022-11-15T09:15:27;18.98;;;12.95;;
52468;SDS011;38381;53.688;10.776;2022-11-15T09:20:27;12.75;;;11.18;;
52468;SDS011;38381;53.688;10.776;2022-11-15T09:25:28;15.10;;;13.07;;
52468;SDS011;38381;53.688;10.776;2022-11-15T09:30:29;15.25;;;12.45;;
52468;SDS011;38381;53.688;10.776;2022-11-15T09:35:29;14.07;;;10.65;;
52468;SDS011;38381;53.688;10.776;2022-11-15T09:40:31;15.57;;;12.80;;
52468;SDS011;38381;53.688;10.776;2022-11-15T09:45:55;17.13;;;11.77;;
52468;SDS011;38381;53.688;10.776;2022-11-15T09:51:04;17.52;;;12.07;;
52468;SDS011;38381;53.688;10.776;2022-11-15T09:56:28;15.30;;;11.90;;
52468;SDS011;38381;53.688;10.776;2022-11-15T10:06:51;24.42;;;15.82;;
52468;SDS011;38381;53.688;10.776;2022-11-15T10:12:14;17.58;;;12.90;;
52468;SDS011;38381;53.688;10.776;2022-11-15T10:27:45;17.00;;;13.40;;
52468;SDS011;38381;53.688;10.776;2022-11-15T10:32:51;14.75;;;12.98;;
52468;SDS011;38381;53.688;10.776;2022-11-15T10:37:52;23.20;;;12.37;;
52468;SDS011;38381;53.688;10.776;2022-11-15T10:53:25;11.63;;;10.37;;
52468;SDS011;38381;53.688;10.776;2022-11-15T11:03:37;12.35;;;9.70;;
52468;SDS011;38381;53.688;10.776;2022-11-15T11:08:38;13.10;;;11.32;;
52468;SDS011;38381;53.688;10.776;2022-11-15T11:13:39;12.82;;;10.07;;
52468;SDS011;38381;53.688;10.776;2022-11-15T11:24:00;10.43;;;9.20;;
52468;SDS011;38381;53.688;10.776;2022-11-15T11:39:58;11.40;;;9.75;;
52468;SDS011;38381;53.688;10.776;2022-11-15T11:45:15;12.10;;;9.15;;
52468;SDS011;38381;53.688;10.776;2022-11-15T11:50:27;10.57;;;8.93;;
52468;SDS011;38381;53.688;10.776;2022-11-15T11:55:29;10.85;;;8.90;;
52468;SDS011;38381;53.688;10.776;2022-11-15T12:00:33;16.35;;;8.93;;
52468;SDS011;38381;53.688;10.776;2022-11-15T12:05:42;10.23;;;9.13;;
52468;SDS011;38381;53.688;10.776;2022-11-15T12:10:47;9.32;;;8.43;;
52468;SDS011;38381;53.688;10.776;2022-11-15T12:15:55;10.90;;;9.20;;
52468;SDS011;38381;53.688;10.776;2022-11-15T12:21:24;12.27;;;8.05;;
52468;SDS011;38381;53.688;10.776;2022-11-15T12:26:48;10.83;;;8.23;;
52468;SDS011;38381;53.688;10.776;2022-11-15T12:31:55;10.05;;;7.50;;
52468;SDS011;38381;53.688;10.776;2022-11-15T12:36:58;9.68;;;8.15;;
52468;SDS011;38381;53.688;10.776;2022-11-15T12:47:00;9.97;;;8.53;;
52468;SDS011;38381;53.688;10.776;2022-11-15T12:52:04;11.43;;;9.65;;
52468;SDS011;38381;53.688;10.776;2022-11-15T13:02:16;12.85;;;9.65;;
52468;SDS011;38381;53.688;10.776;2022-11-15T13:27:51;9.43;;;8.43;;
52468;SDS011;38381;53.688;10.776;2022-11-15T13:32:54;10.80;;;8.38;;
52468;SDS011;38381;53.688;10.776;2022-11-15T13:37:55;10.95;;;9.13;;
52468;SDS011;38381;53.688;10.776;2022-11-15T13:42:59;9.23;;;8.10;;
52468;SDS011;38381;53.688;10.776;2022-11-15T13:48:02;12.77;;;8.40;;
52468;SDS011;38381;53.688;10.776;2022-11-15T13:53:03;11.98;;;8.05;;
52468;SDS011;38381;53.688;10.776;2022-11-15T13:58:04;11.00;;;7.85;;
52468;SDS011;38381;53.688;10.776;2022-11-15T14:03:25;10.15;;;7.72;;
52468;SDS011;38381;53.688;10.776;2022-11-15T14:08:28;9.18;;;7.70;;
52468;SDS011;38381;53.688;10.776;2022-11-15T14:13:30;9.82;;;7.60;;
52468;SDS011;38381;53.688;10.776;2022-11-15T14:23:42;9.07;;;7.82;;
52468;SDS011;38381;53.688;10.776;2022-11-15T14:28:43;9.40;;;7.15;;
52468;SDS011;38381;53.688;10.776;2022-11-15T14:33:43;8.57;;;7.30;;
52468;SDS011;38381;53.688;10.776;2022-11-15T14:38:44;8.10;;;7.28;;
52468;SDS011;38381;53.688;10.776;2022-11-15T14:43:45;9.13;;;7.47;;
52468;SDS011;38381;53.688;10.776;2022-11-15T14:48:45;7.47;;;6.68;;
52468;SDS011;38381;53.688;10.776;2022-11-15T14:53:46;9.77;;;7.90;;
52468;SDS011;38381;53.688;10.776;2022-11-15T14:58:47;8.80;;;7.95;;
52468;SDS011;38381;53.688;10.776;2022-11-15T15:03:47;8.37;;;6.90;;
52468;SDS011;38381;53.688;10.776;2022-11-15T15:08:47;9.63;;;8.73;;
52468;SDS011;38381;53.688;10.776;2022-11-15T15:13:50;8.02;;;6.50;;
52468;SDS011;38381;53.688;10.776;2022-11-15T15:18:51;8.23;;;6.80;;
52468;SDS011;38381;53.688;10.776;2022-11-15T15:23:52;8.50;;;7.65;;
52468;SDS011;38381;53.688;10.776;2022-11-15T15:28:56;6.78;;;6.07;;
52468;SDS011;38381;53.688;10.776;2022-11-15T15:33:56;14.13;;;9.00;;
52468;SDS011;38381;53.688;10.776;2022-11-15T15:38:57;9.18;;;8.23;;
52468;SDS011;38381;53.688;10.776;2022-11-15T15:43:57;9.20;;;7.30;;
52468;SDS011;38381;53.688;10.776;2022-11-15T15:48:58;9.05;;;8.15;;
52468;SDS011;38381;53.688;10.776;2022-11-15T15:53:59;7.93;;;7.13;;
52468;SDS011;38381;53.688;10.776;2022-11-15T15:58:59;7.95;;;7.13;;
52468;SDS011;38381;53.688;10.776;2022-11-15T16:03:59;12.75;;;9.07;;
52468;SDS011;38381;53.688;10.776;2022-11-15T16:09:00;9.60;;;8.60;;
52468;SDS011;38381;53.688;10.776;2022-11-15T16:14:01;14.10;;;11.98;;
52468;SDS011;38381;53.688;10.776;2022-11-15T16:19:02;14.18;;;10.70;;
52468;SDS011;38381;53.688;10.776;2022-11-15T16:24:03;10.80;;;9.02;;
52468;SDS011;38381;53.688;10.776;2022-11-15T16:29:04;11.52;;;10.32;;
52468;SDS011;38381;53.688;10.776;2022-11-15T16:34:06;11.27;;;9.95;;
52468;SDS011;38381;53.688;10.776;2022-11-15T16:39:10;10.50;;;8.70;;
52468;SDS011;38381;53.688;10.776;2022-11-15T16:44:13;14.48;;;10.65;;
52468;SDS011;38381;53.688;10.776;2022-11-15T16:49:14;14.07;;;10.30;;
52468;SDS011;38381;53.688;10.776;2022-11-15T16:54:15;12.55;;;10.07;;
52468;SDS011;38381;53.688;10.776;2022-11-15T16:59:16;10.25;;;9.25;;
52468;SDS011;38381;53.688;10.776;2022-11-15T17:04:17;12.73;;;9.32;;
52468;SDS011;38381;53.688;10.776;2022-11-15T17:09:20;11.70;;;9.57;;
52468;SDS011;38381;53.688;10.776;2022-11-15T17:14:24;10.20;;;8.90;;
52468;SDS011;38381;53.688;10.776;2022-11-15T17:19:25;13.25;;;8.85;;
52468;SDS011;38381;53.688;10.776;2022-11-15T17:24:25;11.23;;;9.73;;
52468;SDS011;38381;53.688;10.776;2022-11-15T17:29:25;12.10;;;10.52;;
52468;SDS011;38381;53.688;10.776;2022-11-15T17:34:26;11.32;;;9.13;;
52468;SDS011;38381;53.688;10.776;2022-11-15T17:39:26;12.90;;;11.00;;
52468;SDS011;38381;53.688;10.776;2022-11-15T17:44:27;14.75;;;10.32;;
52468;SDS011;38381;53.688;10.776;2022-11-15T17:49:27;12.00;;;10.37;;
52468;SDS011;38381;53.688;10.776;2022-11-15T17:54:27;13.67;;;9.63;;
52468;SDS011;38381;53.688;10.776;2022-11-15T17:59:28;13.57;;;10.70;;
52468;SDS011;38381;53.688;10.776;2022-11-15T18:04:29;16.20;;;14.40;;
52468;SDS011;38381;53.688;10.776;2022-11-15T18:09:29;11.80;;;10.10;;
52468;SDS011;38381;53.688;10.776;2022-11-15T18:14:29;12.83;;;11.33;;
52468;SDS011;38381;53.688;10.776;2022-11-15T18:19:30;15.60;;;12.52;;
52468;SDS011;38381;53.688;10.776;2022-11-15T18:24:31;15.35;;;13.43;;
52468;SDS011;38381;53.688;10.776;2022-11-15T18:29:34;16.10;;;12.43;;
52468;SDS011;38381;53.688;10.776;2022-11-15T18:34:36;19.45;;;13.23;;
52468;SDS011;38381;53.688;10.776;2022-11-15T18:39:37;15.38;;;13.75;;
52468;SDS011;38381;53.688;10.776;2022-11-15T18:44:37;14.35;;;12.85;;
52468;SDS011;38381;53.688;10.776;2022-11-15T18:49:38;17.17;;;14.68;;
52468;SDS011;38381;53.688;10.776;2022-11-15T18:54:38;16.57;;;13.57;;
52468;SDS011;38381;53.688;10.776;2022-11-15T18:59:38;17.00;;;15.00;;
52468;SDS011;38381;53.688;10.776;2022-11-15T19:04:39;20.60;;;14.40;;
52468;SDS011;38381;53.688;10.776;2022-11-15T19:09:39;18.15;;;15.38;;
52468;SDS011;38381;53.688;10.776;2022-11-15T19:14:40;19.85;;;16.27;;
52468;SDS011;38381;53.688;10.776;2022-11-15T19:19:40;18.67;;;16.58;;
52468;SDS011;38381;53.688;10.776;2022-11-15T19:24:40;16.67;;;14.75;;
52468;SDS011;38381;53.688;10.776;2022-11-15T19:29:41;16.35;;;13.05;;
52468;SDS011;38381;53.688;10.776;2022-11-15T19:34:41;17.13;;;12.82;;
52468;SDS011;38381;53.688;10.776;2022-11-15T19:39:42;19.13;;;14.60;;
52468;SDS011;38381;53.688;10.776;2022-11-15T19:44:42;16.80;;;14.52;;
52468;SDS011;38381;53.688;10.776;2022-11-15T19:49:43;20.00;;;13.98;;
52468;SDS011;38381;53.688;10.776;2022-11-15T19:54:45;17.77;;;12.85;;
52468;SDS011;38381;53.688;10.776;2022-11-15T19:59:46;23.77;;;15.90;;
52468;SDS011;38381;53.688;10.776;2022-11-15T20:04:46;14.27;;;12.15;;
52468;SDS011;38381;53.688;10.776;2022-11-15T20:09:46;16.43;;;12.50;;
52468;SDS011;38381;53.688;10.776;2022-11-15T20:14:47;18.92;;;13.15;;
52468;SDS011;38381;53.688;10.776;2022-11-15T20:19:47;19.35;;;13.93;;
52468;SDS011;38381;53.688;10.776;2022-11-15T20:24:48;13.27;;;11.47;;
52468;SDS011;38381;53.688;10.776;2022-11-15T20:29:48;16.33;;;14.30;;
52468;SDS011;38381;53.688;10.776;2022-11-15T20:34:50;16.27;;;13.88;;
52468;SDS011;38381;53.688;10.776;2022-11-15T20:39:51;16.67;;;14.87;;
52468;SDS011;38381;53.688;10.776;2022-11-15T20:44:51;18.40;;;14.68;;
52468;SDS011;38381;53.688;10.776;2022-11-15T20:49:52;17.08;;;13.20;;
52468;SDS011;38381;53.688;10.776;2022-11-15T20:54:55;21.08;;;13.35;;
52468;SDS011;38381;53.688;10.776;2022-11-15T20:59:56;16.90;;;14.30;;
52468;SDS011;38381;53.688;10.776;2022-11-15T21:04:56;17.33;;;14.65;;
52468;SDS011;38381;53.688;10.776;2022-11-15T21:09:57;17.75;;;14.93;;
52468;SDS011;38381;53.688;10.776;2022-11-15T21:15:16;19.80;;;17.02;;
52468;SDS011;38381;53.688;10.776;2022-11-15T21:20:16;22.50;;;15.80;;
52468;SDS011;38381;53.688;10.776;2022-11-15T21:25:17;23.23;;;16.98;;
52468;SDS011;38381;53.688;10.776;2022-11-15T21:30:17;19.73;;;15.57;;
52468;SDS011;38381;53.688;10.776;2022-11-15T21:35:18;22.83;;;17.40;;
52468;SDS011;38381;53.688;10.776;2022-11-15T21:40:18;21.02;;;17.85;;
52468;SDS011;38381;53.688;10.776;2022-11-15T21:45:18;24.38;;;17.83;;
52468;SDS011;38381;53.688;10.776;2022-11-15T21:50:19;24.42;;;18.17;;
52468;SDS011;38381;53.688;10.776;2022-11-15T21:55:19;20.65;;;16.52;;
52468;SDS011;38381;53.688;10.776;2022-11-15T22:00:20;24.10;;;17.25;;
52468;SDS011;38381;53.688;10.776;2022-11-15T22:05:42;22.58;;;17.10;;
52468;SDS011;38381;53.688;10.776;2022-11-15T22:10:46;23.20;;;18.23;;
52468;SDS011;38381;53.688;10.776;2022-11-15T22:15:47;21.05;;;15.52;;
52468;SDS011;38381;53.688;10.776;2022-11-15T22:21:07;18.05;;;15.88;;
52468;SDS011;38381;53.688;10.776;2022-11-15T22:26:10;19.73;;;17.42;;
52468;SDS011;38381;53.688;10.776;2022-11-15T22:31:12;20.88;;;16.45;;
52468;SDS011;38381;53.688;10.776;2022-11-15T22:36:13;23.00;;;16.27;;
52468;SDS011;38381;53.688;10.776;2022-11-15T22:41:13;18.83;;;16.60;;
52468;SDS011;38381;53.688;10.776;2022-11-15T22:46:14;19.67;;;16.48;;
52468;SDS011;38381;53.688;10.776;2022-11-15T22:51:14;19.80;;;15.68;;
52468;SDS011;38381;53.688;10.776;2022-11-15T22:56:15;35.13;;;16.85;;
52468;SDS011;38381;53.688;10.776;2022-11-15T23:01:19;20.33;;;16.55;;
52468;SDS011;38381;53.688;10.776;2022-11-15T23:06:23;22.67;;;16.73;;
52468;SDS011;38381;53.688;10.776;2022-11-15T23:11:24;22.00;;;15.40;;
52468;SDS011;38381;53.688;10.776;2022-11-15T23:16:43;22.60;;;17.70;;
52468;SDS011;38381;53.688;10.776;2022-11-15T23:21:44;21.38;;;17.45;;
52468;SDS011;38381;53.688;10.776;2022-11-15T23:27:05;22.88;;;15.63;;
52468;SDS011;38381;53.688;10.776;2022-11-15T23:32:07;24.52;;;17.17;;
52468;SDS011;38381;53.688;10.776;2022-11-15T23:37:26;21.92;;;17.15;;
52468;SDS011;38381;53.688;10.776;2022-11-15T23:42:27;26.83;;;17.58;;
52468;SDS011;38381;53.688;10.776;2022-11-15T23:47:27;27.90;;;18.98;;
52468;SDS011;38381;53.688;10.776;2022-11-15T23:52:28;23.27;;;17.23;;
52468;SDS011;38381;53.688;10.776;2022-11-15T23:57:28;23.27;;;18.38;;
